createdAt,value
2022-08-05T00:02:21.987Z,49.38
2022-08-05T00:04:55.248Z,49.66
2022-08-05T00:07:59.147Z,49.56
2022-08-05T00:10:09.974Z,49.47
2022-08-05T00:12:48.552Z,49.40
2022-08-05T00:15:56.229Z,49.57
2022-08-05T00:18:21.415Z,49.38
2022-08-05T00:20:50.238Z,49.40
2022-08-05T00:23:17.106Z,49.63
2022-08-05T00:25:46.087Z,49.58
2022-08-05T00:28:13.756Z,49.53
2022-08-05T00:30:41.254Z,49.54
2022-08-05T00:33:15.698Z,49.45
2022-08-05T00:36:16.665Z,49.63
2022-08-05T00:38:44.701Z,49.79
2022-08-05T00:41:11.996Z,49.60
2022-08-05T00:43:46.451Z,49.34
2022-08-05T00:46:14.204Z,49.35
2022-08-05T00:48:50.449Z,49.43
2022-08-05T00:51:50.512Z,49.33
2022-08-05T00:54:06.430Z,49.51
2022-08-05T00:56:33.205Z,49.53
2022-08-05T00:59:00.238Z,49.38
2022-08-05T01:01:42.767Z,49.36
2022-08-05T01:04:15.665Z,49.46
2022-08-05T01:06:48.632Z,49.51
2022-08-05T01:09:17.240Z,49.64
2022-08-05T01:11:49.064Z,49.45
2022-08-05T01:14:49.341Z,49.48
2022-08-05T01:17:31.589Z,49.66
2022-08-05T01:20:27.082Z,49.68
2022-08-05T01:23:34.595Z,49.60
2022-08-05T01:26:17.292Z,49.46
2022-08-05T01:28:49.304Z,49.57
2022-08-05T01:31:28.200Z,49.56
2022-08-05T01:34:01.826Z,49.51
2022-08-05T01:36:32.486Z,49.89
2022-08-05T01:39:01.221Z,49.60
2022-08-05T01:41:31.478Z,49.71
2022-08-05T01:43:59.999Z,49.40
2022-08-05T01:46:42.019Z,49.60
2022-08-05T01:49:24.131Z,49.47
2022-08-05T01:51:56.128Z,49.60
2022-08-05T01:54:30.744Z,49.55
2022-08-05T01:58:09.431Z,49.45
2022-08-05T01:59:47.417Z,49.49
2022-08-05T02:02:15.817Z,49.42
2022-08-05T02:04:43.343Z,49.62
2022-08-05T02:07:21.961Z,49.44
2022-08-05T02:09:49.502Z,49.87
2022-08-05T02:12:33.953Z,49.64
2022-08-05T02:15:12.045Z,49.78
2022-08-05T02:18:32.992Z,49.64
2022-08-05T02:20:40.603Z,49.67
2022-08-05T02:23:11.125Z,49.49
2022-08-05T02:25:49.839Z,49.59
2022-08-05T02:28:29.083Z,49.78
2022-08-05T02:31:28.492Z,49.62
2022-08-05T02:34:09.217Z,49.71
2022-08-05T02:36:41.743Z,49.51
2022-08-05T02:39:10.456Z,49.73
2022-08-05T02:41:57.597Z,49.56
2022-08-05T02:44:25.530Z,49.66
2022-08-05T02:46:58.730Z,49.67
2022-08-05T02:49:37.064Z,49.64
2022-08-05T02:52:07.959Z,49.55
2022-08-05T02:54:37.141Z,49.74
2022-08-05T02:58:12.114Z,49.68
2022-08-05T03:00:13.297Z,49.65
2022-08-05T03:02:41.199Z,49.69
2022-08-05T03:05:11.600Z,49.74
2022-08-05T03:07:56.607Z,49.68
2022-08-05T03:10:26.764Z,49.64
2022-08-05T03:15:24.171Z,49.69
2022-08-05T03:17:57.438Z,49.83
2022-08-05T03:20:24.974Z,49.61
2022-08-05T03:22:52.780Z,49.73
2022-08-05T03:25:33.207Z,49.82
2022-08-05T03:28:09.948Z,49.92
2022-08-05T03:30:38.335Z,49.85
2022-08-05T03:33:08.258Z,49.70
2022-08-05T03:35:41.470Z,49.91
2022-08-05T03:38:11.167Z,50.04
2022-08-05T03:40:41.597Z,49.96
2022-08-05T03:43:59.167Z,49.88
2022-08-05T03:45:59.358Z,49.93
2022-08-05T03:48:29.122Z,49.84
2022-08-05T03:52:38.732Z,50.11
2022-08-05T03:55:50.895Z,49.90
2022-08-05T03:57:16.255Z,49.66
2022-08-05T03:59:54.698Z,49.97
2022-08-05T04:02:38.344Z,49.85
2022-08-05T04:05:09.612Z,50.04
2022-08-05T04:07:53.058Z,49.93
2022-08-05T04:10:24.462Z,49.96
2022-08-05T04:12:55.284Z,49.93
2022-08-05T04:15:24.520Z,50.11
2022-08-05T04:17:56.818Z,50.11
2022-08-05T04:20:26.728Z,50.02
2022-08-05T04:22:53.428Z,50.12
2022-08-05T04:25:38.415Z,50.15
2022-08-05T04:28:11.410Z,50.15
2022-08-05T04:30:39.757Z,50.01
2022-08-05T04:33:06.460Z,50.16
2022-08-05T04:36:16.063Z,49.94
2022-08-05T04:38:21.074Z,50.61
2022-08-05T04:40:50.925Z,50.15
2022-08-05T04:43:17.899Z,50.19
2022-08-05T04:45:54.988Z,50.23
2022-08-05T04:48:27.891Z,50.12
2022-08-05T04:51:03.304Z,50.13
2022-08-05T04:53:38.765Z,50.06
2022-08-05T04:56:32.810Z,50.21
2022-08-05T04:58:54.169Z,50.17
2022-08-05T05:02:07.900Z,50.35
2022-08-05T05:04:07.632Z,50.54
2022-08-05T05:06:39.670Z,50.47
2022-08-05T05:09:17.453Z,49.37
2022-08-05T05:11:53.028Z,48.23
2022-08-05T05:14:31.532Z,47.80
2022-08-05T05:16:59.492Z,47.51
2022-08-05T05:19:27.612Z,47.86
2022-08-05T05:22:23.840Z,47.84
2022-08-05T05:24:56.852Z,47.44
2022-08-05T05:27:25.391Z,47.77
2022-08-05T05:30:15.477Z,47.92
2022-08-05T05:32:56.853Z,48.02
2022-08-05T05:35:27.039Z,48.09
2022-08-05T05:38:00.263Z,48.05
2022-08-05T05:40:29.917Z,48.01
2022-08-05T05:42:57.525Z,48.19
2022-08-05T05:45:24.868Z,49.27
2022-08-05T05:48:07.109Z,49.66
2022-08-05T05:50:43.940Z,49.07
2022-08-05T05:53:21.931Z,49.22
2022-08-05T05:55:51.507Z,48.72
2022-08-05T05:58:31.514Z,48.53
2022-08-05T06:01:02.193Z,48.70
2022-08-05T06:03:54.084Z,48.46
2022-08-05T06:06:28.047Z,48.48
2022-08-05T06:08:58.391Z,48.64
2022-08-05T06:11:25.131Z,48.67
2022-08-05T06:13:54.012Z,48.44
2022-08-05T06:16:28.883Z,48.57
2022-08-05T06:19:05.983Z,48.70
2022-08-05T06:21:37.054Z,48.48
2022-08-05T06:24:11.911Z,48.30
2022-08-05T06:26:51.256Z,48.23
2022-08-05T06:29:25.145Z,48.01
2022-08-05T06:32:21.420Z,48.16
2022-08-05T06:34:56.114Z,48.16
2022-08-05T06:37:57.964Z,48.08
2022-08-05T06:40:11.924Z,48.11
2022-08-05T06:42:39.677Z,48.25
2022-08-05T06:45:08.944Z,48.07
2022-08-05T06:48:36.809Z,48.05
2022-08-05T06:50:22.988Z,48.13
2022-08-05T06:52:58.787Z,48.26
2022-08-05T06:55:37.088Z,48.56
2022-08-05T06:58:19.969Z,48.29
2022-08-05T07:00:47.431Z,48.49
2022-08-05T07:03:14.133Z,48.45
2022-08-05T07:05:44.129Z,48.24
2022-08-05T07:08:13.387Z,48.50
2022-08-05T07:10:52.879Z,48.33
2022-08-05T07:13:58.116Z,48.07
2022-08-05T07:17:58.597Z,48.06
2022-08-05T07:20:22.949Z,48.37
2022-08-05T07:22:22.227Z,48.14
2022-08-05T07:24:56.951Z,47.73
2022-08-05T07:27:27.535Z,47.76
2022-08-05T07:30:24.261Z,48.14
2022-08-05T07:32:55.284Z,48.18
2022-08-05T07:36:02.762Z,48.08
2022-08-05T07:38:12.407Z,48.16
2022-08-05T07:40:55.666Z,47.71
2022-08-05T07:43:31.487Z,47.70
2022-08-05T07:46:01.621Z,47.64
2022-08-05T07:49:00.821Z,47.57
2022-08-05T07:51:23.548Z,47.57
2022-08-05T07:54:02.982Z,47.13
2022-08-05T07:57:02.785Z,47.03
2022-08-05T07:59:16.825Z,46.96
2022-08-05T08:01:52.047Z,46.90
2022-08-05T08:04:37.450Z,46.74
2022-08-05T08:07:07.127Z,46.33
2022-08-05T08:09:34.952Z,46.23
2022-08-05T08:12:10.723Z,46.37
2022-08-05T08:14:46.750Z,46.29
2022-08-05T08:17:15.747Z,46.26
2022-08-05T08:20:10.683Z,46.45
2022-08-05T08:22:30.814Z,46.71
2022-08-05T08:25:03.334Z,46.96
2022-08-05T08:27:45.187Z,47.10
2022-08-05T08:30:28.456Z,47.11
2022-08-05T08:33:04.554Z,46.82
2022-08-05T08:35:41.397Z,46.56
2022-08-05T08:38:35.273Z,46.64
2022-08-05T08:41:07.464Z,46.67
2022-08-05T08:45:18.028Z,46.55
2022-08-05T08:46:24.519Z,46.27
2022-08-05T08:49:07.737Z,46.18
2022-08-05T08:52:03.741Z,46.29
2022-08-05T08:54:30.732Z,46.34
2022-08-05T08:56:59.547Z,46.24
2022-08-05T08:59:27.531Z,46.38
2022-08-05T09:02:01.356Z,46.42
2022-08-05T09:04:30.722Z,46.45
2022-08-05T09:06:58.432Z,46.08
2022-08-05T09:09:34.746Z,45.93
2022-08-05T09:12:14.437Z,46.06
2022-08-05T09:14:57.715Z,45.57
2022-08-05T09:17:42.733Z,45.67
2022-08-05T09:20:13.398Z,45.66
2022-08-05T09:23:19.666Z,45.26
2022-08-05T09:26:01.373Z,45.11
2022-08-05T09:28:35.196Z,45.42
2022-08-05T09:31:22.121Z,45.28
2022-08-05T09:33:59.361Z,45.33
2022-08-05T09:36:56.317Z,45.34
2022-08-05T09:39:39.410Z,44.54
2022-08-05T09:42:23.710Z,44.47
2022-08-05T09:44:56.430Z,44.27
2022-08-05T09:47:36.416Z,44.25
2022-08-05T09:50:18.065Z,44.40
2022-08-05T09:53:01.733Z,44.01
2022-08-05T09:55:57.336Z,44.20
2022-08-05T09:58:22.908Z,44.32
2022-08-05T10:01:13.299Z,44.00
2022-08-05T10:04:00.264Z,43.95
2022-08-05T10:06:28.275Z,44.32
2022-08-05T10:08:56.156Z,43.91
2022-08-05T10:11:23.539Z,43.63
2022-08-05T10:13:54.547Z,43.20
2022-08-05T10:16:37.943Z,43.08
2022-08-05T10:19:19.004Z,43.08
2022-08-05T10:21:50.758Z,43.40
2022-08-05T10:24:21.475Z,43.02
2022-08-05T10:26:56.472Z,43.62
2022-08-05T10:30:41.387Z,43.19
2022-08-05T10:32:54.654Z,43.16
2022-08-05T10:35:03.599Z,42.78
2022-08-05T10:37:40.040Z,42.41
2022-08-05T10:40:46.905Z,42.81
2022-08-05T10:43:30.820Z,43.09
2022-08-05T10:46:07.515Z,43.33
2022-08-05T10:48:57.085Z,43.45
2022-08-05T10:51:29.177Z,42.88
2022-08-05T10:54:05.652Z,42.75
2022-08-05T10:56:53.082Z,42.63
2022-08-05T11:00:03.345Z,42.19
2022-08-05T11:02:34.848Z,42.58
2022-08-05T11:05:10.381Z,42.68
2022-08-05T11:08:02.693Z,42.55
2022-08-05T11:10:37.044Z,42.30
2022-08-05T11:13:05.347Z,42.52
2022-08-05T11:15:59.523Z,42.77
2022-08-05T11:18:34.150Z,42.66
2022-08-05T11:21:06.288Z,42.42
2022-08-05T11:24:30.325Z,42.54
2022-08-05T11:27:43.294Z,42.31
2022-08-05T11:30:18.539Z,42.88
2022-08-05T11:32:47.787Z,43.07
2022-08-05T11:36:07.897Z,42.93
2022-08-05T11:38:45.992Z,43.18
2022-08-05T11:41:56.377Z,43.36
2022-08-05T11:44:40.420Z,43.47
2022-08-05T11:47:10.956Z,43.37
2022-08-05T11:49:39.615Z,43.23
2022-08-05T11:52:11.747Z,43.43
2022-08-05T11:54:40.703Z,43.40
2022-08-05T11:57:25.275Z,43.25
2022-08-05T11:59:53.500Z,43.35
2022-08-05T12:02:30.240Z,43.23
2022-08-05T12:05:00.879Z,43.31
2022-08-05T12:08:08.670Z,43.08
2022-08-05T12:10:21.239Z,43.03
2022-08-05T12:12:59.551Z,43.10
2022-08-05T12:15:35.882Z,43.18
2022-08-05T12:18:10.471Z,43.22
2022-08-05T12:20:39.032Z,43.19
2022-08-05T12:23:12.761Z,43.07
2022-08-05T12:25:53.719Z,42.97
2022-08-05T12:28:37.659Z,43.10
2022-08-05T12:31:05.320Z,42.96
2022-08-05T12:33:36.339Z,42.94
2022-08-05T12:36:08.841Z,43.03
2022-08-05T12:38:40.278Z,43.10
2022-08-05T12:41:17.436Z,43.01
2022-08-05T12:43:55.883Z,43.10
2022-08-05T12:46:29.936Z,42.85
2022-08-05T12:49:05.882Z,43.02
2022-08-05T12:52:14.234Z,43.08
2022-08-05T12:54:32.279Z,43.07
2022-08-05T12:57:01.191Z,42.80
2022-08-05T12:59:46.595Z,42.90
2022-08-05T13:02:19.812Z,42.90
2022-08-05T13:04:54.411Z,42.73
2022-08-05T13:07:55.750Z,42.68
2022-08-05T13:10:13.219Z,42.68
2022-08-05T13:12:51.284Z,42.63
2022-08-05T13:15:41.401Z,42.65
2022-08-05T13:18:19.834Z,42.55
2022-08-05T13:20:49.331Z,42.68
2022-08-05T13:23:18.021Z,42.56
2022-08-05T13:25:58.542Z,42.42
2022-08-05T13:28:28.435Z,42.55
2022-08-05T13:30:55.579Z,42.37
2022-08-05T13:34:24.493Z,42.20
2022-08-05T13:36:11.367Z,42.25
2022-08-05T13:38:42.658Z,42.01
2022-08-05T13:41:11.023Z,42.07
2022-08-05T13:43:44.791Z,41.99
2022-08-05T13:46:44.055Z,41.90
2022-08-05T13:49:10.044Z,42.04
2022-08-05T13:51:41.057Z,41.84
2022-08-05T13:54:12.646Z,41.79
2022-08-05T13:56:45.189Z,41.76
2022-08-05T13:59:24.157Z,41.78
2022-08-05T14:01:57.804Z,41.65
2022-08-05T14:04:51.061Z,41.79
2022-08-05T14:07:25.742Z,41.76
2022-08-05T14:10:28.124Z,41.63
2022-08-05T14:12:57.356Z,41.65
2022-08-05T14:16:07.314Z,41.63
2022-08-05T14:18:14.751Z,41.74
2022-08-05T14:20:47.214Z,41.58
2022-08-05T14:23:23.457Z,41.41
2022-08-05T14:25:58.090Z,41.48
2022-08-05T14:28:29.959Z,41.48
2022-08-05T14:30:58.136Z,41.46
2022-08-05T14:33:25.046Z,41.19
2022-08-05T14:35:54.255Z,41.28
2022-08-05T14:38:27.879Z,41.32
2022-08-05T14:41:06.320Z,41.05
2022-08-05T14:43:58.862Z,40.89
2022-08-05T14:46:28.683Z,40.84
2022-08-05T14:49:06.427Z,40.67
2022-08-05T14:51:42.564Z,40.66
2022-08-05T14:54:30.264Z,40.74
2022-08-05T14:56:57.648Z,40.73
2022-08-05T14:59:25.063Z,40.39
2022-08-05T15:01:56.773Z,40.42
2022-08-05T15:04:27.260Z,40.38
2022-08-05T15:06:55.670Z,40.50
2022-08-05T15:09:52.876Z,40.26
2022-08-05T15:12:11.466Z,40.13
2022-08-05T15:14:48.279Z,39.89
2022-08-05T15:17:45.961Z,39.63
2022-08-05T15:20:06.240Z,39.73
2022-08-05T15:22:36.896Z,39.73
2022-08-05T15:25:13.666Z,39.40
2022-08-05T15:27:42.937Z,39.45
2022-08-05T15:30:19.121Z,39.19
2022-08-05T15:32:46.609Z,39.43
2022-08-05T15:35:13.402Z,39.35
2022-08-05T15:38:34.854Z,39.34
2022-08-05T15:41:00.733Z,39.21
2022-08-05T15:43:20.159Z,39.45
2022-08-05T15:45:48.059Z,39.42
2022-08-05T15:48:28.493Z,39.49
2022-08-05T15:50:55.297Z,39.55
2022-08-05T15:53:23.249Z,39.15
2022-08-05T15:56:02.374Z,39.16
2022-08-05T15:58:36.880Z,39.20
2022-08-05T16:01:16.113Z,39.07
2022-08-05T16:03:45.334Z,39.05
2022-08-05T16:06:15.400Z,39.22
2022-08-05T16:08:47.415Z,39.26
2022-08-05T16:11:14.311Z,39.17
2022-08-05T16:13:41.352Z,38.85
2022-08-05T16:16:08.153Z,38.64
2022-08-05T16:18:52.419Z,38.30
2022-08-05T16:21:20.802Z,38.39
2022-08-05T16:24:07.688Z,38.39
2022-08-05T16:26:58.764Z,38.27
2022-08-05T16:29:26.943Z,38.23
2022-08-05T16:31:58.315Z,38.19
2022-08-05T16:34:26.183Z,38.02
2022-08-05T16:36:53.821Z,38.16
2022-08-05T16:39:21.028Z,38.32
2022-08-05T16:42:13.716Z,38.41
2022-08-05T16:44:34.954Z,38.35
2022-08-05T16:47:04.637Z,38.47
2022-08-05T16:49:31.433Z,38.50
2022-08-05T16:51:58.077Z,38.36
2022-08-05T16:54:31.945Z,38.35
2022-08-05T16:57:00.120Z,38.32
2022-08-05T16:59:30.610Z,38.46
2022-08-05T17:01:57.691Z,38.23
2022-08-05T17:04:28.027Z,38.20
2022-08-05T17:07:03.149Z,37.70
2022-08-05T17:09:38.769Z,37.54
2022-08-05T17:12:17.556Z,36.86
2022-08-05T17:14:49.730Z,36.97
2022-08-05T17:17:16.583Z,36.63
2022-08-05T17:19:46.586Z,36.77
2022-08-05T17:22:25.571Z,36.84
2022-08-05T17:24:58.449Z,36.38
2022-08-05T17:27:33.767Z,35.80
2022-08-05T17:30:02.900Z,35.29
2022-08-05T17:32:30.264Z,35.27
2022-08-05T17:35:00.598Z,35.74
2022-08-05T17:37:41.505Z,35.19
2022-08-05T17:40:15.076Z,35.29
2022-08-05T17:42:49.882Z,35.17
2022-08-05T17:45:21.058Z,34.96
2022-08-05T17:47:55.070Z,35.03
2022-08-05T17:50:28.517Z,34.68
2022-08-05T17:53:01.369Z,34.47
2022-08-05T17:55:37.353Z,34.74
2022-08-05T17:58:12.475Z,34.03
2022-08-05T18:00:47.478Z,33.59
2022-08-05T18:03:39.305Z,33.67
2022-08-05T18:06:11.153Z,32.93
2022-08-05T18:08:44.078Z,32.84
2022-08-05T18:11:24.549Z,32.64
2022-08-05T18:13:59.553Z,32.02
2022-08-05T18:16:26.450Z,31.83
2022-08-05T18:18:53.174Z,31.93
2022-08-05T18:21:22.680Z,31.65
2022-08-05T18:23:53.494Z,31.45
2022-08-05T18:26:22.007Z,31.52
2022-08-05T18:28:54.784Z,31.72
2022-08-05T18:31:23.574Z,32.01
2022-08-05T18:33:51.640Z,32.05
2022-08-05T18:36:19.176Z,32.08
2022-08-05T18:38:46.312Z,32.16
2022-08-05T18:41:57.940Z,32.28
2022-08-05T18:44:06.204Z,32.09
2022-08-05T18:46:34.634Z,31.98
2022-08-05T18:49:22.210Z,31.83
2022-08-05T18:52:17.957Z,32.14
2022-08-05T18:54:54.576Z,31.95
2022-08-05T18:57:23.904Z,31.54
2022-08-05T19:00:03.236Z,31.17
2022-08-05T19:02:31.050Z,30.96
2022-08-05T19:05:02.057Z,30.88
2022-08-05T19:07:49.729Z,30.64
2022-08-05T19:10:17.429Z,30.40
2022-08-05T19:12:46.241Z,30.52
2022-08-05T19:15:57.059Z,30.51
2022-08-05T19:18:09.163Z,29.71
2022-08-05T19:20:41.159Z,30.52
2022-08-05T19:24:06.101Z,30.67
2022-08-05T19:26:01.689Z,30.38
2022-08-05T19:28:30.497Z,30.43
2022-08-05T19:30:57.260Z,30.49
2022-08-05T19:33:34.035Z,30.66
2022-08-05T19:36:02.832Z,30.42
2022-08-05T19:38:35.573Z,30.68
2022-08-05T19:41:02.948Z,30.53
2022-08-05T19:44:06.700Z,30.79
2022-08-05T19:46:28.958Z,30.73
2022-08-05T19:48:57.678Z,30.57
2022-08-05T19:52:04.227Z,30.66
2022-08-05T19:54:21.988Z,30.84
2022-08-05T19:56:58.390Z,30.96
2022-08-05T19:59:55.446Z,31.32
2022-08-05T20:02:13.104Z,31.18
2022-08-05T20:04:43.242Z,31.34
2022-08-05T20:07:13.434Z,31.13
2022-08-05T20:09:53.929Z,31.30
2022-08-05T20:12:23.745Z,31.48
2022-08-05T20:14:52.513Z,31.44
2022-08-05T20:17:23.810Z,31.61
2022-08-05T20:19:56.991Z,31.65
2022-08-05T20:22:26.650Z,31.52
2022-08-05T20:24:54.945Z,31.73
2022-08-05T20:27:27.022Z,31.96
2022-08-05T20:29:58.499Z,32.06
2022-08-05T20:32:27.113Z,31.94
2022-08-05T20:34:54.279Z,32.09
2022-08-05T20:38:06.770Z,32.10
2022-08-05T20:40:08.657Z,32.33
2022-08-05T20:42:35.511Z,32.49
2022-08-05T20:45:02.764Z,32.51
2022-08-05T20:47:31.982Z,32.56
2022-08-05T20:49:59.522Z,33.16
2022-08-05T20:52:28.794Z,33.67
2022-08-05T20:55:15.966Z,33.83
2022-08-05T20:57:44.356Z,34.06
2022-08-05T21:00:41.232Z,34.14
2022-08-05T21:03:06.882Z,34.33
2022-08-05T21:05:47.918Z,34.49
2022-08-05T21:08:21.097Z,34.59
2022-08-05T21:10:53.726Z,34.70
2022-08-05T21:13:20.408Z,34.94
2022-08-05T21:16:01.811Z,34.69
2022-08-05T21:18:30.310Z,35.08
2022-08-05T21:20:57.519Z,35.09
2022-08-05T21:23:24.848Z,35.14
2022-08-05T21:25:51.709Z,35.27
2022-08-05T21:28:23.837Z,35.25
2022-08-05T21:30:50.933Z,35.12
2022-08-05T21:33:22.639Z,35.34
2022-08-05T21:35:55.827Z,35.46
2022-08-05T21:38:28.074Z,35.57
2022-08-05T21:40:54.841Z,35.57
2022-08-05T21:43:24.576Z,35.44
2022-08-05T21:45:57.479Z,35.68
2022-08-05T21:48:27.814Z,35.75
2022-08-05T21:50:55.474Z,35.84
2022-08-05T21:53:27.053Z,35.78
2022-08-05T21:56:05.321Z,36.02
2022-08-05T21:58:42.089Z,36.03
2022-08-05T22:01:10.805Z,36.09
2022-08-05T22:03:52.543Z,36.13
2022-08-05T22:06:22.975Z,36.14
2022-08-05T22:09:00.244Z,36.29
2022-08-05T22:11:35.097Z,36.32
2022-08-05T22:14:05.817Z,36.21
2022-08-05T22:16:50.792Z,36.62
2022-08-05T22:20:01.229Z,36.34
2022-08-05T22:22:05.390Z,36.58
2022-08-05T22:24:52.512Z,36.49
2022-08-05T22:28:05.021Z,36.67
2022-08-05T22:30:35.114Z,36.71
2022-08-05T22:33:03.098Z,36.79
2022-08-05T22:35:31.088Z,36.79
2022-08-05T22:38:14.945Z,37.10
2022-08-05T22:40:42.038Z,37.07
2022-08-05T22:43:16.462Z,36.90
2022-08-05T22:46:11.867Z,37.03
2022-08-05T22:48:39.893Z,37.07
2022-08-05T22:51:07.825Z,37.18
2022-08-05T22:53:35.891Z,37.19
2022-08-05T22:56:03.823Z,37.19
2022-08-05T22:58:36.703Z,37.52
2022-08-05T23:01:03.422Z,37.42
2022-08-05T23:03:58.156Z,37.41
2022-08-05T23:06:20.025Z,37.66
2022-08-05T23:08:53.066Z,37.40
2022-08-05T23:11:19.781Z,37.44
2022-08-05T23:13:46.464Z,37.59
2022-08-05T23:16:26.204Z,37.58
2022-08-05T23:19:00.395Z,37.66
2022-08-05T23:21:42.486Z,37.74
2022-08-05T23:24:11.335Z,37.62
2022-08-05T23:26:38.330Z,37.61
2022-08-05T23:29:05.484Z,37.66
2022-08-05T23:31:36.621Z,37.92
2022-08-05T23:34:06.738Z,38.05
2022-08-05T23:36:39.915Z,38.02
2022-08-05T23:39:16.340Z,37.88
2022-08-05T23:41:51.028Z,38.01
2022-08-05T23:44:19.805Z,37.96
2022-08-05T23:46:51.799Z,38.08
2022-08-05T23:49:23.665Z,38.01
2022-08-05T23:52:10.626Z,38.15
2022-08-05T23:54:38.605Z,38.21
2022-08-05T23:57:06.171Z,38.41
